Overview Statistics Trail Chart Weather Telemetry Raw packets
 

This is the latest recevied weather packets stored in our database for station/object OK4PZ-5. If no packets are shown the sender has not sent any weather packets the latest 10 day(s).

<< 1 2 3 4 5 6 7 >>
Time Temp. Humidity Pressure Rain* Wind** Luminosity Snow
1788554702 18.33° C 80% 1015 hPa 0 mm - - -
1788553802 18.33° C 78% 1015 hPa 0 mm - - -
1788552903 18.33° C 79% 1016 hPa 0 mm - - -
1788552003 18.33° C 79% 1016 hPa 0 mm - - -
1788551103 18.89° C 77% 1016 hPa 0 mm - - -
1788550202 19.44° C 76% 1016 hPa 0 mm - - -
1788549302 20° C 72% 1016 hPa 0 mm - - -
1788548402 20.56° C 69% 1016 hPa 0 mm - - -
1788547502 21.67° C 63% 1016 hPa 0 mm - - -
1788546602 23.89° C 55% 1016 hPa 0 mm - - -
1788545702 24.44° C 53% 1015 hPa 0 mm - - -
1788544803 24.44° C 52% 1015 hPa 0 mm - - -
1788543903 25° C 50% 1015 hPa 0 mm - - -
1788543003 25.56° C 49% 1015 hPa 0 mm - - -
1788542102 26.11° C 48% 1015 hPa 0 mm - - -
1788541202 27.22° C 46% 1015 hPa 0 mm - - -
1788540302 27.22° C 45% 1015 hPa 0 mm - - -
1788539403 27.22° C 45% 1015 hPa 0 mm - - -
1788538502 27.78° C 45% 1015 hPa 0 mm - - -
1788537602 27.78° C 44% 1015 hPa 0 mm - - -
1788536703 28.33° C 44% 1015 hPa 0 mm - - -
1788535803 27.78° C 46% 1016 hPa 0 mm - - -
1788534902 27.22° C 47% 1016 hPa 0 mm - - -
1788534002 27.78° C 46% 1016 hPa 0 mm - - -
1788533103 28.33° C 45% 1016 hPa 0 mm - - -

* Rain latest hour (hover to see other rain measurements)
** Current wind speed in m/s (hover to see current wind gust speed)